Time;durP1;ratioP1;P1;durP2;ratioP2;P2;SDS_P1;SDS_P2;PMS_P1;PMS_P2;Temp;Humidity;BMP_temperature;BMP_pressure;BME280_temperature;BME280_humidity;BME280_pressure;Samples;Min_cycle;Max_cycle;Signal;HPM_P1;HPM_P2
2022/04/27 00:01:55;;;;;;;13.45;9.48;;;9.80;99.90;;;;;;5015344;28;20098;-85
2022/04/27 00:04:20;;;;;;;16.67;9.73;;;9.80;99.90;;;;;;5001011;28;20038;-85
2022/04/27 00:06:46;;;;;;;13.75;9.95;;;9.80;99.90;;;;;;5014873;28;20032;-87
2022/04/27 00:09:12;;;;;;;13.32;9.52;;;9.80;99.90;;;;;;4997959;28;20400;-86
2022/04/27 00:11:38;;;;;;;12.98;9.43;;;9.70;99.90;;;;;;4993077;28;20396;-86
2022/04/27 00:14:04;;;;;;;14.07;9.98;;;9.60;99.90;;;;;;4997126;28;20030;-86
2022/04/27 00:16:30;;;;;;;14.65;10.25;;;9.60;99.90;;;;;;4996494;28;20025;-86
2022/04/27 00:18:56;;;;;;;13.10;9.30;;;9.60;99.90;;;;;;4996839;28;20022;-86
2022/04/27 00:21:22;;;;;;;15.90;9.77;;;9.50;99.90;;;;;;4993138;28;20041;-86
2022/04/27 00:23:47;;;;;;;13.57;9.20;;;9.40;99.90;;;;;;4996006;28;20038;-85
2022/04/27 00:26:13;;;;;;;13.88;8.93;;;9.40;99.90;;;;;;4993982;28;20030;-86
2022/04/27 00:28:39;;;;;;;13.77;9.00;;;9.40;99.90;;;;;;5011881;28;20064;-86
2022/04/27 00:31:05;;;;;;;13.27;9.00;;;9.40;99.90;;;;;;5016161;28;20045;-87
2022/04/27 00:33:31;;;;;;;14.27;9.75;;;9.30;99.90;;;;;;4995656;28;20121;-85
2022/04/27 00:35:57;;;;;;;15.15;10.35;;;9.40;99.90;;;;;;4990855;28;20029;-86
2022/04/27 00:38:23;;;;;;;17.02;11.77;;;9.40;99.90;;;;;;4994991;28;20018;-87
2022/04/27 00:40:48;;;;;;;17.42;11.05;;;9.30;99.90;;;;;;5008005;28;20484;-85
2022/04/27 00:43:15;;;;;;;15.93;11.27;;;9.30;99.90;;;;;;4995941;28;20026;-84
2022/04/27 00:45:41;;;;;;;17.52;11.30;;;9.30;99.90;;;;;;4989213;28;20037;-86
2022/04/27 00:48:09;;;;;;;16.48;11.73;;;9.30;99.90;;;;;;4995943;28;20084;-86
2022/04/27 00:50:35;;;;;;;17.50;11.55;;;9.20;99.90;;;;;;4992467;28;20113;-86
2022/04/27 00:53:01;;;;;;;17.20;11.75;;;9.20;99.90;;;;;;4996968;28;20461;-88
2022/04/27 00:55:28;;;;;;;14.88;10.77;;;9.20;99.90;;;;;;4987415;28;20113;-86
2022/04/27 00:57:54;;;;;;;17.30;10.38;;;9.30;99.90;;;;;;4993972;28;20029;-86
2022/04/27 01:00:19;;;;;;;16.75;10.77;;;9.20;99.90;;;;;;4994778;28;20080;-87
2022/04/27 01:02:45;;;;;;;15.60;10.18;;;9.20;99.90;;;;;;5013370;28;20396;-86
2022/04/27 01:05:12;;;;;;;16.45;11.10;;;9.20;99.90;;;;;;4994862;28;20054;-86
2022/04/27 01:07:39;;;;;;;15.68;10.50;;;9.20;99.90;;;;;;4991947;28;20030;-88
2022/04/27 01:10:06;;;;;;;16.48;11.05;;;9.20;99.90;;;;;;4993248;28;20493;-86
2022/04/27 01:12:32;;;;;;;16.15;10.75;;;9.20;99.90;;;;;;4995766;28;20030;-87
2022/04/27 01:14:58;;;;;;;16.52;10.90;;;9.20;99.90;;;;;;4994427;28;20068;-86
2022/04/27 01:17:24;;;;;;;16.13;10.95;;;9.20;99.90;;;;;;4991539;28;20061;-87
2022/04/27 01:19:49;;;;;;;17.63;10.75;;;9.30;99.90;;;;;;4986519;28;20029;-86
2022/04/27 01:22:15;;;;;;;19.52;13.27;;;9.30;99.90;;;;;;5008187;28;20029;-86
2022/04/27 01:24:42;;;;;;;19.45;12.85;;;9.30;99.90;;;;;;5028447;28;20029;-86
2022/04/27 01:27:08;;;;;;;19.05;12.45;;;9.30;99.90;;;;;;5014266;28;20025;-86
2022/04/27 01:29:33;;;;;;;22.95;13.15;;;9.30;99.90;;;;;;5010958;28;20030;-87
2022/04/27 01:32:01;;;;;;;20.20;13.15;;;9.30;99.90;;;;;;5006540;28;20410;-84
2022/04/27 01:34:27;;;;;;;19.77;12.98;;;9.40;99.90;;;;;;5018722;28;20025;-86
2022/04/27 01:36:54;;;;;;;22.83;13.57;;;9.40;99.90;;;;;;5006349;28;20068;-86
2022/04/27 01:39:23;;;;;;;18.67;11.98;;;9.50;99.90;;;;;;4994871;28;20024;-87
2022/04/27 01:41:50;;;;;;;21.33;13.05;;;9.50;99.90;;;;;;5011901;28;20025;-86
2022/04/27 01:44:15;;;;;;;23.13;14.18;;;9.60;99.90;;;;;;4993871;28;20049;-84
2022/04/27 01:46:41;;;;;;;22.73;13.43;;;9.60;99.90;;;;;;4991115;28;20034;-85
2022/04/27 01:49:07;;;;;;;23.95;14.45;;;9.60;99.90;;;;;;4994164;28;20021;-85
2022/04/27 01:54:17;;;;;;;20.38;12.63;;;9.60;99.90;;;;;;5010320;28;20037;-87
2022/04/27 01:56:47;;;;;;;19.67;12.70;;;9.70;99.90;;;;;;4988968;28;20022;-86
2022/04/27 01:59:13;;;;;;;20.38;12.65;;;9.70;99.90;;;;;;4993095;28;20037;-86
2022/04/27 02:01:39;;;;;;;18.50;11.93;;;9.70;99.90;;;;;;4991335;28;20014;-85
2022/04/27 02:04:05;;;;;;;19.58;12.68;;;9.70;99.90;;;;;;4998276;28;20054;-87
2022/04/27 02:06:31;;;;;;;19.92;13.00;;;9.60;99.90;;;;;;4994650;28;20114;-86
2022/04/27 02:08:57;;;;;;;19.73;12.63;;;9.60;99.90;;;;;;4995162;28;20022;-86
2022/04/27 02:11:26;;;;;;;21.90;12.93;;;9.60;99.90;;;;;;4994747;28;20396;-87
2022/04/27 02:13:55;;;;;;;18.90;12.55;;;9.70;99.90;;;;;;4998251;28;20114;-87
2022/04/27 02:16:29;;;;;;;19.27;11.98;;;9.70;99.90;;;;;;4993164;28;20026;-85
2022/04/27 02:18:56;;;;;;;21.95;12.88;;;9.80;99.90;;;;;;4990792;28;20195;-86
2022/04/27 02:21:22;;;;;;;21.92;13.25;;;9.80;99.90;;;;;;4992512;28;20058;-86
2022/04/27 02:23:49;;;;;;;19.40;12.20;;;9.80;99.90;;;;;;4988825;28;20104;-87
2022/04/27 02:26:15;;;;;;;21.33;13.25;;;9.90;99.90;;;;;;4993863;28;20121;-87
2022/04/27 02:28:41;;;;;;;20.80;13.32;;;9.90;99.90;;;;;;4994804;28;20471;-86
2022/04/27 02:31:07;;;;;;;21.40;13.20;;;9.90;99.90;;;;;;5009164;28;20091;-87
2022/04/27 02:33:33;;;;;;;21.23;12.85;;;10.00;99.90;;;;;;4992675;28;20079;-85
2022/04/27 02:35:59;;;;;;;20.23;13.15;;;9.90;99.90;;;;;;4996039;28;20018;-86
2022/04/27 02:38:26;;;;;;;17.85;11.88;;;10.00;99.90;;;;;;5016531;28;20059;-86
2022/04/27 02:40:52;;;;;;;14.95;10.30;;;10.00;99.90;;;;;;5001386;28;20033;-87
2022/04/27 02:43:18;;;;;;;15.57;9.95;;;10.00;99.90;;;;;;4997047;28;20022;-87
2022/04/27 02:45:43;;;;;;;13.10;9.38;;;10.00;99.90;;;;;;5005066;28;20022;-87
2022/04/27 02:48:10;;;;;;;13.07;9.88;;;9.90;99.90;;;;;;4996432;28;20476;-86
2022/04/27 02:53:21;;;;;;;11.05;8.00;;;9.90;99.90;;;;;;4991553;28;20132;-85
2022/04/27 02:55:55;;;;;;;10.07;7.95;;;9.90;99.90;;;;;;4972306;28;20110;-85
2022/04/27 02:58:22;;;;;;;12.23;8.55;;;9.80;99.90;;;;;;4959561;28;20022;-86
2022/04/27 03:00:49;;;;;;;10.82;8.05;;;9.80;99.90;;;;;;4967996;28;20058;-86
2022/04/27 03:03:14;;;;;;;10.88;8.05;;;9.80;99.90;;;;;;4968271;28;20041;-85
2022/04/27 03:05:40;;;;;;;11.18;8.45;;;9.80;99.90;;;;;;4977144;28;20022;-84
2022/04/27 03:08:14;;;;;;;10.23;8.23;;;9.80;99.90;;;;;;4977895;28;20030;-86
2022/04/27 03:10:44;;;;;;;11.48;8.43;;;9.80;99.90;;;;;;4981400;28;20113;-85
2022/04/27 03:13:10;;;;;;;12.40;9.10;;;9.80;99.90;;;;;;4977402;28;20097;-85
2022/04/27 03:15:55;;;;;;;11.45;8.15;;;9.90;99.90;;;;;;4972911;28;20029;-86
2022/04/27 03:19:25;;;;;;;10.80;8.30;;;9.90;99.90;;;;;;4984581;28;20307;-86
2022/04/27 03:22:43;;;;;;;11.07;7.82;;;9.90;99.90;;;;;;4963439;28;20094;-85
2022/04/27 03:26:20;;;;;;;11.95;7.68;;;9.90;99.90;;;;;;4979978;28;20042;-85
2022/04/27 03:29:12;;;;;;;11.00;7.85;;;9.90;99.90;;;;;;4969010;28;20489;-86
2022/04/27 03:31:40;;;;;;;10.75;8.23;;;9.90;99.90;;;;;;4973090;28;20128;-87
2022/04/27 03:34:05;;;;;;;10.15;7.80;;;9.90;99.90;;;;;;4964725;28;20118;-85
2022/04/27 03:36:32;;;;;;;12.20;8.75;;;9.90;99.90;;;;;;4976608;28;20161;-85
2022/04/27 03:38:59;;;;;;;10.95;8.18;;;9.90;99.90;;;;;;4963042;28;20501;-86
2022/04/27 03:41:28;;;;;;;12.18;8.48;;;9.90;99.90;;;;;;4970017;28;20073;-84
2022/04/27 03:44:11;;;;;;;11.55;8.50;;;9.90;99.90;;;;;;5008215;28;20030;-85
2022/04/27 03:46:39;;;;;;;11.65;7.68;;;9.90;99.90;;;;;;5001701;28;20117;-85
2022/04/27 03:49:07;;;;;;;13.32;8.45;;;9.90;99.90;;;;;;4974799;28;20026;-85
2022/04/27 03:51:34;;;;;;;13.82;9.20;;;9.90;99.90;;;;;;4962175;28;20465;-85
2022/04/27 03:54:08;;;;;;;12.60;8.32;;;9.90;99.90;;;;;;4976038;28;20038;-85
2022/04/27 03:56:38;;;;;;;10.57;8.13;;;9.90;99.90;;;;;;4987965;28;20036;-84
2022/04/27 03:59:08;;;;;;;11.82;8.30;;;9.90;99.90;;;;;;4971903;28;20035;-85
2022/04/27 04:01:34;;;;;;;12.48;8.38;;;9.90;99.90;;;;;;4976323;28;20030;-86
2022/04/27 04:04:00;;;;;;;10.63;8.02;;;9.90;99.90;;;;;;4972123;28;20037;-85
2022/04/27 04:06:26;;;;;;;12.00;8.63;;;9.90;99.90;;;;;;4983803;28;20027;-85
2022/04/27 04:08:52;;;;;;;11.15;7.97;;;9.90;99.90;;;;;;4970470;28;20031;-85
2022/04/27 04:11:21;;;;;;;13.05;8.77;;;10.00;99.90;;;;;;4976805;28;20042;-86
2022/04/27 04:13:47;;;;;;;13.77;9.00;;;10.00;99.90;;;;;;4975200;28;20096;-85
2022/04/27 04:16:12;;;;;;;11.45;8.50;;;10.00;99.90;;;;;;4976484;28;20109;-85
2022/04/27 04:18:38;;;;;;;13.20;8.07;;;10.00;99.90;;;;;;4970721;28;20011;-86
2022/04/27 04:21:03;;;;;;;12.20;8.43;;;10.00;99.90;;;;;;4989589;28;20495;-85
2022/04/27 04:23:29;;;;;;;11.60;8.43;;;9.90;99.90;;;;;;4994127;28;20110;-85
2022/04/27 04:28:38;;;;;;;12.98;8.25;;;9.90;99.90;;;;;;4989671;28;20034;-86
2022/04/27 04:31:05;;;;;;;12.65;8.30;;;9.90;99.90;;;;;;4976630;28;20019;-86
2022/04/27 04:33:31;;;;;;;11.40;8.13;;;9.90;99.90;;;;;;4975578;28;20030;-86
2022/04/27 04:35:57;;;;;;;13.63;8.95;;;9.90;99.90;;;;;;4975426;28;20034;-86
2022/04/27 04:38:29;;;;;;;12.45;8.43;;;9.90;99.90;;;;;;4974857;28;20069;-86
2022/04/27 04:40:55;;;;;;;13.38;8.93;;;9.90;99.90;;;;;;4980486;28;20114;-86
2022/04/27 04:43:21;;;;;;;12.48;8.55;;;9.90;99.90;;;;;;4977420;28;20062;-85
2022/04/27 04:45:47;;;;;;;11.55;8.32;;;9.90;99.90;;;;;;4974573;28;20038;-86
2022/04/27 04:48:32;;;;;;;12.77;8.52;;;10.00;99.90;;;;;;4985031;28;20034;-85
2022/04/27 04:50:58;;;;;;;11.50;8.40;;;10.00;99.90;;;;;;4978483;28;20037;-85
2022/04/27 04:53:23;;;;;;;11.75;8.45;;;10.00;99.90;;;;;;4972597;28;20114;-85
2022/04/27 04:55:49;;;;;;;11.80;8.65;;;10.10;99.90;;;;;;4969352;28;20031;-86
2022/04/27 04:58:16;;;;;;;12.20;9.30;;;10.10;99.90;;;;;;4998563;28;20042;-85
2022/04/27 05:00:42;;;;;;;14.82;9.35;;;10.10;99.90;;;;;;4981826;28;20072;-85
2022/04/27 05:03:08;;;;;;;14.07;9.43;;;10.10;99.90;;;;;;4991228;28;20022;-85
2022/04/27 05:05:37;;;;;;;13.80;9.00;;;10.20;99.90;;;;;;4992311;28;20027;-85
2022/04/27 05:08:06;;;;;;;13.95;9.07;;;10.20;99.90;;;;;;4949429;28;20034;-85
2022/04/27 05:10:32;;;;;;;14.00;9.80;;;10.20;99.90;;;;;;4969664;28;20086;-85
2022/04/27 05:13:03;;;;;;;13.85;10.02;;;10.20;99.90;;;;;;4972643;28;20034;-85
2022/04/27 05:15:29;;;;;;;13.25;8.73;;;10.30;99.90;;;;;;4958138;28;20480;-85
2022/04/27 05:17:56;;;;;;;14.50;9.07;;;10.30;99.90;;;;;;4961530;28;20113;-86
2022/04/27 05:20:23;;;;;;;11.50;8.95;;;10.30;99.90;;;;;;4958645;28;20026;-85
2022/04/27 05:22:48;;;;;;;12.00;9.63;;;10.40;99.90;;;;;;4975312;28;20045;-85
2022/04/27 05:25:14;;;;;;;13.77;9.75;;;10.40;99.90;;;;;;4972129;28;20026;-85
2022/04/27 05:27:40;;;;;;;12.57;9.57;;;10.50;99.90;;;;;;4975069;28;20085;-85
2022/04/27 05:33:03;;;;;;;12.80;9.45;;;10.60;99.90;;;;;;4988109;28;20069;-86
2022/04/27 05:35:29;;;;;;;12.35;9.35;;;10.70;99.90;;;;;;4975341;28;20030;-86
2022/04/27 05:37:54;;;;;;;13.77;9.93;;;10.80;99.90;;;;;;4973930;28;20420;-85
2022/04/27 05:40:43;;;;;;;12.93;9.40;;;10.90;99.90;;;;;;4969149;28;20023;-86
2022/04/27 05:43:11;;;;;;;11.55;8.63;;;10.90;99.90;;;;;;4990418;28;20032;-87
2022/04/27 05:45:37;;;;;;;10.30;8.65;;;10.80;99.90;;;;;;4975514;28;20029;-86
2022/04/27 05:48:21;;;;;;;11.77;8.68;;;10.80;99.90;;;;;;4972563;28;20019;-87
2022/04/27 05:50:47;;;;;;;11.63;8.82;;;10.70;99.90;;;;;;4973903;28;20022;-86
2022/04/27 05:53:12;;;;;;;11.88;8.63;;;10.70;99.90;;;;;;4980121;28;20082;-87
2022/04/27 05:55:44;;;;;;;9.90;8.15;;;10.70;99.90;;;;;;4967706;28;20037;-88
2022/04/27 05:58:10;;;;;;;11.70;8.80;;;10.70;99.90;;;;;;4972436;28;20377;-84
2022/04/27 06:00:36;;;;;;;13.20;9.75;;;10.70;99.90;;;;;;4968660;28;20025;-87
2022/04/27 06:03:01;;;;;;;12.60;9.18;;;10.60;99.90;;;;;;4977138;28;20014;-88
2022/04/27 06:05:27;;;;;;;12.40;8.82;;;10.60;99.90;;;;;;4977178;28;20027;-87
2022/04/27 06:07:52;;;;;;;10.55;8.40;;;10.60;99.90;;;;;;4972604;28;20054;-85
2022/04/27 06:10:18;;;;;;;10.30;7.82;;;10.60;99.90;;;;;;4986356;28;20034;-88
2022/04/27 06:12:48;;;;;;;8.82;6.53;;;10.70;99.90;;;;;;4968970;28;20019;-87
2022/04/27 06:15:15;;;;;;;9.38;7.55;;;10.70;99.90;;;;;;4976658;28;20154;-88
2022/04/27 06:17:40;;;;;;;9.13;7.03;;;10.70;99.90;;;;;;4969079;28;20105;-88
2022/04/27 06:20:07;;;;;;;9.90;6.75;;;10.70;99.90;;;;;;4979086;28;20069;-89
2022/04/27 06:22:32;;;;;;;10.38;7.82;;;10.80;99.90;;;;;;4994037;28;20695;-87
2022/04/27 06:24:58;;;;;;;10.93;8.45;;;10.80;99.90;;;;;;4965366;28;20030;-89
2022/04/27 06:27:23;;;;;;;10.10;8.52;;;10.80;99.90;;;;;;4975568;28;20050;-86
2022/04/27 06:29:49;;;;;;;13.10;8.60;;;10.80;99.90;;;;;;4973932;28;20029;-89
2022/04/27 06:32:15;;;;;;;13.13;9.18;;;10.80;99.90;;;;;;4973324;28;20033;-88
2022/04/27 06:34:40;;;;;;;12.55;9.65;;;10.80;99.90;;;;;;4975498;28;20114;-86
2022/04/27 06:37:06;;;;;;;13.05;9.00;;;10.90;99.90;;;;;;4975312;28;20026;-85
2022/04/27 06:39:31;;;;;;;11.48;9.18;;;11.00;99.90;;;;;;4975656;28;20105;-85
2022/04/27 06:41:57;;;;;;;12.95;8.93;;;11.00;99.90;;;;;;4972468;28;20046;-86
2022/04/27 06:44:22;;;;;;;10.40;8.32;;;11.10;99.90;;;;;;4975720;28;20035;-86
2022/04/27 06:46:48;;;;;;;8.90;7.47;;;11.10;99.90;;;;;;4976165;28;20118;-88
2022/04/27 06:49:23;;;;;;;9.63;7.25;;;11.10;99.90;;;;;;4976227;28;20026;-88
2022/04/27 06:51:48;;;;;;;9.18;7.43;;;11.20;99.90;;;;;;4975089;28;20101;-86
2022/04/27 06:54:14;;;;;;;8.95;6.65;;;11.30;99.90;;;;;;4977277;28;20035;-87
2022/04/27 06:56:40;;;;;;;7.38;6.25;;;11.30;99.90;;;;;;4977714;28;20097;-86
2022/04/27 06:59:05;;;;;;;6.93;5.97;;;11.30;99.90;;;;;;4978037;28;20042;-86
2022/04/27 07:01:32;;;;;;;9.25;6.15;;;11.30;99.90;;;;;;4978187;28;20086;-86
2022/04/27 07:04:06;;;;;;;6.82;5.30;;;11.40;99.90;;;;;;4976493;28;20034;-86
2022/04/27 07:06:32;;;;;;;5.35;4.63;;;11.40;99.90;;;;;;4998476;28;20018;-86
2022/04/27 07:08:57;;;;;;;5.97;4.65;;;11.50;99.90;;;;;;4983374;28;20022;-85
2022/04/27 07:11:23;;;;;;;5.82;4.90;;;11.50;99.90;;;;;;5011783;28;20027;-85
2022/04/27 07:13:48;;;;;;;6.25;4.72;;;11.40;99.90;;;;;;4994449;28;20129;-85
2022/04/27 07:16:14;;;;;;;5.60;5.00;;;11.50;99.90;;;;;;4970913;28;20508;-85
2022/04/27 07:18:39;;;;;;;5.50;4.70;;;11.50;99.90;;;;;;4974100;28;20109;-85
2022/04/27 07:21:08;;;;;;;4.28;3.88;;;11.50;99.90;;;;;;4979743;28;20360;-84
2022/04/27 07:23:34;;;;;;;3.58;3.13;;;11.50;99.90;;;;;;4975738;28;20040;-85
2022/04/27 07:25:59;;;;;;;2.83;2.63;;;11.50;99.90;;;;;;4974904;28;20547;-85
2022/04/27 07:28:25;;;;;;;3.42;3.03;;;11.50;99.90;;;;;;4974206;28;20130;-86
2022/04/27 07:30:50;;;;;;;3.88;3.45;;;11.50;99.90;;;;;;4975541;28;20026;-85
2022/04/27 07:33:16;;;;;;;3.60;3.30;;;11.50;99.90;;;;;;4975501;28;20042;-86
2022/04/27 07:35:42;;;;;;;3.88;3.40;;;11.50;99.90;;;;;;4973304;28;20073;-85
2022/04/27 07:38:07;;;;;;;3.08;2.63;;;11.50;99.90;;;;;;4978341;28;20033;-86
2022/04/27 07:40:33;;;;;;;3.35;3.00;;;11.60;99.90;;;;;;4977317;28;20015;-85
2022/04/27 07:42:59;;;;;;;3.22;2.92;;;11.70;99.90;;;;;;4974978;28;20033;-86
2022/04/27 07:45:25;;;;;;;3.33;2.92;;;11.80;99.90;;;;;;4974252;28;20023;-86
2022/04/27 07:47:51;;;;;;;3.28;2.97;;;11.90;99.90;;;;;;4977199;28;20026;-86
2022/04/27 07:50:18;;;;;;;3.08;2.78;;;12.00;99.90;;;;;;4975503;28;20030;-85
2022/04/27 07:52:44;;;;;;;3.17;2.83;;;12.00;99.90;;;;;;4973365;28;20034;-85
2022/04/27 07:55:10;;;;;;;3.28;2.97;;;12.10;99.90;;;;;;4976625;28;20037;-85
2022/04/27 07:57:37;;;;;;;3.42;3.13;;;12.10;99.90;;;;;;4986832;28;20377;-85
2022/04/27 08:00:06;;;;;;;3.47;3.17;;;12.10;99.90;;;;;;4972205;28;20078;-86
2022/04/27 08:02:31;;;;;;;3.30;3.00;;;12.10;99.90;;;;;;4978349;28;20030;-86
2022/04/27 08:05:36;;;;;;;4.25;3.00;;;12.00;99.90;;;;;;4976643;28;20034;-87
2022/04/27 08:08:02;;;;;;;3.65;3.15;;;12.00;99.90;;;;;;4972563;28;20054;-85
2022/04/27 08:10:28;;;;;;;4.28;3.25;;;12.10;99.90;;;;;;4988243;28;20042;-87
2022/04/27 08:12:58;;;;;;;3.70;3.30;;;12.20;99.90;;;;;;4986085;28;20023;-89
2022/04/27 08:18:56;;;;;;;3.53;3.22;;;12.30;99.90;;;;;;4989540;28;20032;-89
2022/04/27 08:29:06;;;;;;;4.10;3.70;;;12.60;99.90;;;;;;4915760;29;20063;-89
2022/04/27 08:35:44;;;;;;;3.92;3.53;;;13.00;99.90;;;;;;4896386;29;20043;-90
2022/04/27 08:38:17;;;;;;;3.95;3.55;;;13.10;99.90;;;;;;4936362;28;20031;-89
2022/04/27 08:41:02;;;;;;;3.92;3.63;;;13.20;99.90;;;;;;4935211;28;20134;-88
2022/04/27 08:43:27;;;;;;;4.53;4.13;;;13.40;99.90;;;;;;5008417;28;20034;-87
2022/04/27 08:45:54;;;;;;;4.00;3.60;;;13.60;99.90;;;;;;4990947;28;20023;-87
2022/04/27 08:48:21;;;;;;;4.70;4.20;;;13.90;99.90;;;;;;4992039;28;20027;-89
2022/04/27 08:50:48;;;;;;;4.15;3.75;;;14.20;99.90;;;;;;4979575;28;20026;-89
2022/04/27 08:53:14;;;;;;;4.07;3.70;;;14.70;99.90;;;;;;4976245;28;20512;-90
2022/04/27 08:55:41;;;;;;;4.20;3.80;;;15.30;99.90;;;;;;4976192;28;20053;-91
2022/04/27 08:58:15;;;;;;;3.80;3.50;;;15.80;99.90;;;;;;5004201;23;20459;-87
2022/04/27 09:00:42;;;;;;;3.65;3.30;;;16.20;99.90;;;;;;5005504;28;20030;-87
2022/04/27 09:03:33;;;;;;;3.70;3.40;;;16.60;99.90;;;;;;4988682;28;20056;-88
2022/04/27 09:06:12;;;;;;;3.63;3.33;;;17.10;99.90;;;;;;4992321;28;20404;-88
2022/04/27 09:08:43;;;;;;;4.28;3.50;;;17.40;99.90;;;;;;4972578;28;20065;-87
2022/04/27 09:11:17;;;;;;;3.53;3.22;;;17.90;99.90;;;;;;4978065;28;20042;-88
2022/04/27 09:13:54;;;;;;;3.85;3.35;;;18.10;99.30;;;;;;4975335;28;20030;-88
2022/04/27 09:16:22;;;;;;;4.03;3.50;;;18.50;98.50;;;;;;4990477;28;20041;-88
2022/04/27 09:21:58;;;;;;;4.50;4.10;;;18.30;97.50;;;;;;4996521;28;20037;-89
2022/04/27 09:24:24;;;;;;;5.20;4.65;;;18.70;96.40;;;;;;4987838;28;20037;-87
2022/04/27 09:27:09;;;;;;;6.43;5.00;;;18.30;96.50;;;;;;4980751;28;20037;-87
2022/04/27 09:29:35;;;;;;;7.05;5.35;;;17.90;96.10;;;;;;4979738;28;20447;-87
2022/04/27 09:32:03;;;;;;;5.25;4.57;;;17.50;96.40;;;;;;4989462;28;20029;-87
2022/04/27 09:34:29;;;;;;;5.05;4.55;;;17.20;96.40;;;;;;4973462;28;20109;-87
2022/04/27 09:36:59;;;;;;;6.03;5.35;;;17.10;96.20;;;;;;4977951;28;20068;-87
2022/04/27 09:39:26;;;;;;;8.32;5.07;;;17.50;95.60;;;;;;4975744;28;20029;-88
2022/04/27 09:41:52;;;;;;;5.38;4.82;;;18.40;94.70;;;;;;4979168;28;20390;-87
2022/04/27 09:44:28;;;;;;;9.10;4.97;;;19.50;92.70;;;;;;4977562;28;20034;-87
2022/04/27 09:46:55;;;;;;;6.90;5.78;;;19.50;91.80;;;;;;4976015;28;20601;-86
2022/04/27 09:49:20;;;;;;;6.07;5.43;;;19.50;91.20;;;;;;4974391;28;20054;-86
2022/04/27 09:51:51;;;;;;;7.53;5.55;;;20.60;89.60;;;;;;4988171;28;20034;-87
2022/04/27 09:54:23;;;;;;;6.90;6.00;;;20.00;88.60;;;;;;4976924;28;20527;-87
2022/04/27 09:56:58;;;;;;;8.30;7.00;;;20.40;87.40;;;;;;4982226;28;20022;-87
2022/04/27 09:59:31;;;;;;;8.13;5.80;;;21.60;83.30;;;;;;4977128;28;20034;-87
2022/04/27 10:01:59;;;;;;;8.23;6.15;;;21.90;79.60;;;;;;4969548;28;20357;-88
2022/04/27 10:04:30;;;;;;;6.85;6.03;;;20.90;80.40;;;;;;4980758;28;20026;-89
2022/04/27 10:07:01;;;;;;;8.23;6.30;;;20.50;80.60;;;;;;4975864;28;20082;-87
2022/04/27 10:09:29;;;;;;;10.18;6.40;;;20.20;80.70;;;;;;4975575;28;20019;-90
2022/04/27 10:11:56;;;;;;;8.80;6.32;;;20.50;79.50;;;;;;4979662;28;20077;-88
2022/04/27 10:14:22;;;;;;;7.70;5.85;;;21.90;75.60;;;;;;4986140;28;20026;-88
2022/04/27 10:16:49;;;;;;;7.35;5.75;;;23.30;71.00;;;;;;4974714;28;20018;-88
2022/04/27 10:19:16;;;;;;;7.35;5.95;;;24.30;66.90;;;;;;4975935;28;20162;-88
2022/04/27 10:21:57;;;;;;;5.95;5.35;;;24.80;63.90;;;;;;4959568;28;20023;-88
2022/04/27 10:24:49;;;;;;;6.55;5.85;;;23.30;65.30;;;;;;4977440;28;20753;-86
2022/04/27 10:27:34;;;;;;;7.07;6.38;;;22.10;67.70;;;;;;4944234;28;20039;-88
2022/04/27 10:30:04;;;;;;;10.27;5.70;;;20.80;70.10;;;;;;4977981;28;20064;-88
2022/04/27 10:32:43;;;;;;;8.25;5.82;;;21.70;69.40;;;;;;4977629;28;20030;-88
2022/04/27 10:35:12;;;;;;;7.60;5.57;;;22.80;67.40;;;;;;4978067;28;20092;-87
2022/04/27 10:37:50;;;;;;;6.60;5.80;;;21.90;68.10;;;;;;4978330;28;20089;-87
2022/04/27 10:40:38;;;;;;;7.55;5.75;;;20.80;70.00;;;;;;4978176;28;20474;-87
2022/04/27 10:43:07;;;;;;;7.30;5.40;;;19.90;72.40;;;;;;4974352;28;20082;-87
2022/04/27 10:45:42;;;;;;;6.38;5.65;;;19.20;73.50;;;;;;4978820;28;20023;-89
2022/04/27 10:48:22;;;;;;;7.68;5.70;;;18.70;74.90;;;;;;4978140;28;20366;-88
2022/04/27 10:51:00;;;;;;;6.70;5.97;;;18.60;75.50;;;;;;4977670;28;20023;-90
2022/04/27 10:53:36;;;;;;;6.28;5.40;;;18.70;75.90;;;;;;4989797;28;20032;-90
2022/04/27 10:56:02;;;;;;;8.73;5.32;;;19.40;75.40;;;;;;4992342;28;20030;-86
2022/04/27 10:59:03;;;;;;;6.32;5.38;;;19.80;75.20;;;;;;4991309;28;20098;-86
2022/04/27 11:08:27;;;;;;;7.45;5.50;;;20.20;74.50;;;;;;4934904;29;20046;-91
2022/04/27 11:10:55;;;;;;;6.75;5.93;;;19.60;74.90;;;;;;4977192;28;20034;-91
2022/04/27 11:13:27;;;;;;;6.80;5.60;;;19.30;74.80;;;;;;4985942;28;20129;-90
2022/04/27 11:16:09;;;;;;;6.78;5.70;;;19.10;75.00;;;;;;4987528;28;20077;-90
2022/04/27 11:19:05;;;;;;;6.05;5.43;;;19.00;75.30;;;;;;4986628;28;20027;-90
2022/04/27 11:21:33;;;;;;;5.07;4.38;;;19.10;75.60;;;;;;4975026;28;20022;-90
2022/04/27 11:24:04;;;;;;;5.63;4.70;;;19.10;75.80;;;;;;4977686;28;20030;-90
2022/04/27 11:26:41;;;;;;;5.53;4.75;;;19.00;75.20;;;;;;4982989;28;20022;-90
2022/04/27 11:29:12;;;;;;;6.63;5.32;;;18.60;74.30;;;;;;4965358;28;20133;-90
2022/04/27 11:31:39;;;;;;;5.10;4.60;;;18.30;74.90;;;;;;4960074;28;20023;-90
2022/04/27 11:34:25;;;;;;;6.85;5.10;;;18.10;75.20;;;;;;4974090;28;20022;-90
2022/04/27 11:36:53;;;;;;;7.63;5.47;;;18.10;75.80;;;;;;4964691;28;20363;-90
2022/04/27 11:39:22;;;;;;;6.53;5.80;;;18.00;76.00;;;;;;4967712;28;20057;-91
2022/04/27 11:42:02;;;;;;;8.27;5.15;;;18.10;76.30;;;;;;4978697;28;20050;-90
2022/04/27 11:44:38;;;;;;;7.25;4.93;;;18.20;75.60;;;;;;4981441;28;20022;-90
2022/04/27 11:47:04;;;;;;;5.35;4.45;;;18.10;75.80;;;;;;4986349;28;20030;-89
2022/04/27 11:49:30;;;;;;;6.28;4.95;;;18.00;75.90;;;;;;4987461;28;20063;-90
2022/04/27 11:51:56;;;;;;;7.88;5.50;;;17.80;76.20;;;;;;4971689;28;20057;-89
2022/04/27 11:54:30;;;;;;;6.10;5.28;;;17.70;76.20;;;;;;5001805;28;20030;-90
2022/04/27 11:57:03;;;;;;;5.97;5.35;;;17.60;76.40;;;;;;4981019;28;20018;-90
2022/04/27 11:59:47;;;;;;;5.78;4.95;;;17.40;77.00;;;;;;4986371;28;20026;-90
2022/04/27 12:02:13;;;;;;;6.68;5.63;;;17.30;77.30;;;;;;4978693;28;20130;-90
2022/04/27 12:04:42;;;;;;;5.95;5.10;;;17.30;77.90;;;;;;4986670;28;20037;-90
2022/04/27 12:07:21;;;;;;;5.80;5.20;;;17.20;77.70;;;;;;4980591;28;20369;-90
2022/04/27 12:10:03;;;;;;;6.50;4.82;;;17.20;77.50;;;;;;4969376;28;20027;-90
2022/04/27 12:12:31;;;;;;;6.00;4.97;;;17.30;77.60;;;;;;4978408;28;20034;-90
2022/04/27 12:15:02;;;;;;;6.43;4.53;;;17.20;77.70;;;;;;4976079;28;20029;-90
2022/04/27 12:17:56;;;;;;;5.28;4.60;;;17.20;77.80;;;;;;4978959;28;20040;-89
2022/04/27 12:20:29;;;;;;;5.60;4.60;;;17.40;78.20;;;;;;4978875;28;20030;-90
2022/04/27 12:23:00;;;;;;;5.72;4.35;;;17.60;78.00;;;;;;4978530;28;20105;-91
2022/04/27 12:25:57;;;;;;;8.17;4.53;;;17.70;77.50;;;;;;4976209;28;20026;-90
2022/04/27 12:28:41;;;;;;;5.40;4.57;;;17.60;77.40;;;;;;4963546;28;20293;-91
2022/04/27 12:31:10;;;;;;;4.40;4.00;;;17.60;77.20;;;;;;4987441;28;20129;-91
2022/04/27 12:33:44;;;;;;;6.30;3.78;;;17.50;77.00;;;;;;4980982;28;20030;-91
2022/04/27 12:39:25;;;;;;;4.72;4.18;;;17.20;77.40;;;;;;4979695;28;20117;-91
2022/04/27 12:42:06;;;;;;;6.03;4.78;;;17.10;77.90;;;;;;4962311;28;20015;-91
2022/04/27 12:44:45;;;;;;;4.45;3.97;;;17.00;77.80;;;;;;4975225;28;20029;-91
2022/04/27 12:47:19;;;;;;;5.45;3.80;;;16.90;77.60;;;;;;4978372;28;20015;-91
2022/04/27 12:49:50;;;;;;;5.05;4.55;;;16.80;77.70;;;;;;4981311;28;20025;-91
2022/04/27 12:52:16;;;;;;;5.47;4.40;;;16.80;77.60;;;;;;4977753;28;20113;-91
2022/04/27 12:54:45;;;;;;;5.15;4.65;;;16.70;77.70;;;;;;4984470;28;20136;-90
2022/04/27 12:57:12;;;;;;;5.78;4.90;;;16.60;77.80;;;;;;4984062;28;20061;-91
2022/04/27 12:59:57;;;;;;;6.80;4.40;;;16.60;78.20;;;;;;4977141;28;20062;-91
2022/04/27 13:02:24;;;;;;;7.03;4.57;;;16.60;78.10;;;;;;4971687;28;20022;-91
2022/04/27 13:04:57;;;;;;;6.63;4.78;;;16.60;78.20;;;;;;4977151;28;20033;-92
2022/04/27 13:07:25;;;;;;;7.63;4.60;;;16.50;78.00;;;;;;4977506;28;20093;-92
2022/04/27 13:12:38;;;;;;;5.70;4.47;;;16.60;78.30;;;;;;4993946;28;20091;-92
2022/04/27 13:15:05;;;;;;;5.32;4.45;;;16.60;78.20;;;;;;4973429;28;20026;-91
2022/04/27 13:17:31;;;;;;;4.45;3.92;;;16.50;77.90;;;;;;4984729;28;20117;-90
2022/04/27 13:19:57;;;;;;;6.63;4.63;;;16.60;78.10;;;;;;4967022;28;20496;-91
2022/04/27 13:22:28;;;;;;;5.60;4.43;;;16.60;78.10;;;;;;4976460;28;20022;-90
2022/04/27 13:25:22;;;;;;;5.45;4.25;;;16.50;77.80;;;;;;4979386;28;20484;-91
2022/04/27 13:27:48;;;;;;;4.97;3.88;;;16.60;78.10;;;;;;4994391;23;20041;-86
2022/04/27 13:30:17;;;;;;;4.05;3.65;;;16.70;77.90;;;;;;4977109;28;20026;-85
2022/04/27 13:32:44;;;;;;;4.25;3.85;;;16.90;77.10;;;;;;4978475;28;20118;-87
2022/04/27 13:35:09;;;;;;;4.28;3.60;;;16.90;76.70;;;;;;4970142;28;20030;-86
2022/04/27 13:37:35;;;;;;;4.07;3.63;;;17.10;76.30;;;;;;4997806;28;20387;-85
2022/04/27 13:40:01;;;;;;;3.70;3.40;;;17.10;76.30;;;;;;4992280;28;20023;-86